Time;durP1;ratioP1;P1;durP2;ratioP2;P2;SDS_P1;SDS_P2;PMS_P1;PMS_P2;Temp;Humidity;BMP_temperature;BMP_pressure;BME280_temperature;BME280_humidity;BME280_pressure;Samples;Min_cycle;Max_cycle;Signal;HPM_P1;HPM_P2
2022/03/12 00:02:07;;;;;;;;;;;4.20;36.20;;;;;;5037337;28;19909;-64
2022/03/12 00:04:33;;;;;;;;;;;4.30;36.20;;;;;;5037126;28;20384;-67
2022/03/12 00:06:59;;;;;;;;;;;4.30;36.10;;;;;;5037136;28;20357;-65
2022/03/12 00:09:25;;;;;;;;;;;4.30;36.00;;;;;;5037203;28;19909;-62
2022/03/12 00:11:52;;;;;;;;;;;4.40;35.90;;;;;;5037047;28;20000;-61
2022/03/12 00:14:22;;;;;;;;;;;4.40;35.60;;;;;;5037424;28;19916;-61
2022/03/12 00:16:49;;;;;;;;;;;4.50;35.60;;;;;;5037202;28;19909;-63
2022/03/12 00:19:15;;;;;;;;;;;4.40;35.60;;;;;;5037102;28;19917;-63
2022/03/12 00:21:42;;;;;;;;;;;4.30;35.50;;;;;;5036763;28;20273;-64
2022/03/12 00:24:08;;;;;;;;;;;4.40;35.30;;;;;;5036811;28;19916;-61
2022/03/12 00:26:40;;;;;;;;;;;4.40;35.20;;;;;;5036471;28;20420;-65
2022/03/12 00:29:09;;;;;;;;;;;4.30;35.10;;;;;;5036640;28;19916;-67
2022/03/12 00:31:35;;;;;;;;;;;4.20;35.20;;;;;;5036776;28;20383;-67
2022/03/12 00:34:00;;;;;;;;;;;4.20;35.40;;;;;;5036858;28;19945;-70
2022/03/12 00:36:26;;;;;;;;;;;4.00;35.40;;;;;;5036576;28;19916;-72
2022/03/12 00:38:52;;;;;;;;;;;4.10;35.60;;;;;;5036131;28;19917;-69
2022/03/12 00:41:17;;;;;;;;;;;4.00;35.70;;;;;;5036567;28;19956;-70
2022/03/12 00:43:44;;;;;;;;;;;4.00;35.60;;;;;;5036523;28;19916;-67
2022/03/12 00:46:09;;;;;;;;;;;4.10;35.70;;;;;;5036729;28;19909;-66
2022/03/12 00:48:35;;;;;;;;;;;4.10;35.30;;;;;;5036293;28;20008;-71
2022/03/12 00:51:01;;;;;;;;;;;4.10;35.30;;;;;;5036231;28;19913;-66
2022/03/12 00:53:26;;;;;;;;;;;4.00;35.40;;;;;;5036047;28;19975;-63
2022/03/12 00:55:52;;;;;;;;;;;4.00;35.50;;;;;;5036350;28;19913;-61
2022/03/12 00:58:17;;;;;;;;;;;4.00;35.10;;;;;;5036233;28;19916;-64
2022/03/12 01:00:43;;;;;;;;;;;4.10;35.10;;;;;;5036116;28;20391;-64
2022/03/12 01:03:09;;;;;;;;;;;4.10;35.20;;;;;;5036144;28;20323;-63
2022/03/12 01:05:49;;;;;;;;;;;4.00;35.40;;;;;;5035956;28;19916;-64
2022/03/12 01:08:15;;;;;;;;;;;4.10;35.50;;;;;;5036099;28;19955;-63
2022/03/12 01:10:41;;;;;;;;;;;4.10;35.20;;;;;;5035958;28;20004;-62
2022/03/12 01:13:07;;;;;;;;;;;4.10;35.10;;;;;;5036261;28;19960;-64
2022/03/12 01:15:34;;;;;;;;;;;4.00;35.00;;;;;;5036635;28;19932;-64
2022/03/12 01:18:00;;;;;;;;;;;4.10;34.90;;;;;;5046088;28;19960;-65
2022/03/12 01:20:26;;;;;;;;;;;3.90;35.30;;;;;;5048050;28;19917;-66
2022/03/12 01:22:52;;;;;;;;;;;3.90;35.10;;;;;;5044184;28;19915;-66
2022/03/12 01:25:18;;;;;;;;;;;4.10;35.00;;;;;;5045984;28;19913;-67
2022/03/12 01:27:44;;;;;;;;;;;4.10;34.40;;;;;;5040641;28;19924;-67
2022/03/12 01:30:10;;;;;;;;;;;4.00;34.20;;;;;;5036701;28;19909;-72
2022/03/12 01:32:36;;;;;;;;;;;4.00;34.10;;;;;;5036515;28;20438;-64
2022/03/12 01:35:03;;;;;;;;;;;4.10;33.80;;;;;;5036402;28;19917;-64
2022/03/12 01:37:28;;;;;;;;;;;4.20;33.50;;;;;;5036231;28;19908;-64
2022/03/12 01:39:54;;;;;;;;;;;4.00;33.60;;;;;;5036294;28;20329;-64
2022/03/12 01:42:27;;;;;;;;;;;4.10;33.60;;;;;;5035131;28;19942;-63
2022/03/12 01:44:53;;;;;;;;;;;4.00;33.50;;;;;;5036122;28;20263;-64
2022/03/12 01:47:20;;;;;;;;;;;4.00;33.50;;;;;;5035917;28;19969;-63
2022/03/12 01:49:47;;;;;;;;;;;4.00;33.40;;;;;;5035835;28;19909;-64
2022/03/12 01:52:13;;;;;;;;;;;4.00;33.00;;;;;;5035678;28;20356;-63
2022/03/12 01:54:42;;;;;;;;;;;4.10;33.10;;;;;;5035417;28;19909;-64
2022/03/12 01:57:09;;;;;;;;;;;4.10;32.60;;;;;;5035811;28;19909;-63
2022/03/12 01:59:35;;;;;;;;;;;4.00;32.70;;;;;;5034897;28;19963;-64
2022/03/12 02:02:02;;;;;;;;;;;4.00;33.40;;;;;;5034822;28;19909;-63
2022/03/12 02:04:29;;;;;;;;;;;4.00;32.60;;;;;;5035557;28;19955;-63
2022/03/12 02:06:58;;;;;;;;;;;4.00;32.20;;;;;;5035151;28;19964;-63
2022/03/12 02:09:24;;;;;;;;;;;4.00;32.60;;;;;;5034669;28;19909;-64
2022/03/12 02:11:51;;;;;;;;;;;4.10;32.20;;;;;;5034977;28;19916;-66
2022/03/12 02:14:26;;;;;;;;;;;4.10;32.30;;;;;;5035161;28;19916;-64
2022/03/12 02:16:54;;;;;;;;;;;4.10;32.20;;;;;;5034511;28;19920;-64
2022/03/12 02:19:20;;;;;;;;;;;3.90;32.40;;;;;;5034579;28;19913;-65
2022/03/12 02:21:53;;;;;;;;;;;4.00;32.50;;;;;;5034697;28;20339;-64
2022/03/12 02:24:20;;;;;;;;;;;4.00;32.60;;;;;;5034801;28;20288;-63
2022/03/12 02:26:46;;;;;;;;;;;3.90;32.40;;;;;;5034497;28;20324;-63
2022/03/12 02:29:12;;;;;;;;;;;3.80;32.50;;;;;;5033049;28;20250;-63
2022/03/12 02:31:42;;;;;;;;;;;3.70;32.90;;;;;;5034398;28;19959;-63
2022/03/12 02:34:10;;;;;;;;;;;3.60;33.20;;;;;;5034569;28;19909;-62
2022/03/12 02:36:36;;;;;;;;;;;3.60;33.40;;;;;;5034108;28;19909;-63
2022/03/12 02:39:04;;;;;;;;;;;3.70;33.00;;;;;;5034263;28;19921;-63
2022/03/12 02:41:30;;;;;;;;;;;3.60;32.80;;;;;;5034165;28;19909;-64
2022/03/12 02:43:56;;;;;;;;;;;3.50;33.20;;;;;;5034179;28;19963;-64
2022/03/12 02:46:26;;;;;;;;;;;3.50;33.30;;;;;;5034372;28;20276;-63
2022/03/12 02:48:52;;;;;;;;;;;3.40;33.40;;;;;;5034230;28;19992;-62
2022/03/12 02:51:21;;;;;;;;;;;3.50;33.40;;;;;;5034180;28;19917;-62
2022/03/12 02:53:49;;;;;;;;;;;3.60;33.50;;;;;;5033277;28;20350;-63
2022/03/12 02:56:15;;;;;;;;;;;3.50;33.30;;;;;;5033932;28;19909;-62
2022/03/12 02:58:41;;;;;;;;;;;3.50;33.40;;;;;;5032792;28;19913;-62
2022/03/12 03:01:07;;;;;;;;;;;3.40;33.40;;;;;;5034180;28;19996;-63
2022/03/12 03:03:36;;;;;;;;;;;3.60;33.10;;;;;;5033812;28;19913;-62
2022/03/12 03:06:02;;;;;;;;;;;3.60;32.60;;;;;;5034049;28;19909;-63
2022/03/12 03:08:28;;;;;;;;;;;3.60;32.30;;;;;;5033885;28;19909;-63
2022/03/12 03:10:57;;;;;;;;;;;3.60;32.00;;;;;;5033902;28;20337;-62
2022/03/12 03:13:23;;;;;;;;;;;3.60;32.10;;;;;;5033985;28;19909;-66
2022/03/12 03:15:51;;;;;;;;;;;3.60;32.00;;;;;;5035371;28;20308;-68
2022/03/12 03:18:17;;;;;;;;;;;3.50;32.40;;;;;;5034902;28;19916;-68
2022/03/12 03:20:43;;;;;;;;;;;3.40;33.30;;;;;;5034772;28;19917;-69
2022/03/12 03:23:10;;;;;;;;;;;3.40;31.90;;;;;;5035173;28;20001;-68
2022/03/12 03:25:35;;;;;;;;;;;3.40;31.90;;;;;;5035049;28;19917;-71
2022/03/12 03:28:01;;;;;;;;;;;3.50;31.60;;;;;;5033761;28;19909;-66
2022/03/12 03:30:31;;;;;;;;;;;3.60;31.80;;;;;;5033732;28;19909;-67
2022/03/12 03:32:56;;;;;;;;;;;3.70;31.20;;;;;;5033763;28;19909;-67
2022/03/12 03:35:22;;;;;;;;;;;3.60;30.80;;;;;;5034005;28;19919;-67
2022/03/12 03:37:47;;;;;;;;;;;3.60;31.20;;;;;;5033811;28;19991;-70
2022/03/12 03:40:13;;;;;;;;;;;3.50;31.40;;;;;;5033564;28;19953;-69
2022/03/12 03:42:38;;;;;;;;;;;3.50;31.40;;;;;;5033496;28;19909;-67
2022/03/12 03:45:04;;;;;;;;;;;3.50;31.70;;;;;;5033866;28;19910;-62
2022/03/12 03:47:30;;;;;;;;;;;3.50;31.80;;;;;;5034076;28;19909;-63
2022/03/12 03:49:55;;;;;;;;;;;3.60;31.60;;;;;;5033300;28;19916;-67
2022/03/12 03:52:21;;;;;;;;;;;3.50;31.70;;;;;;5033562;28;19916;-70
2022/03/12 03:54:47;;;;;;;;;;;3.50;31.80;;;;;;5033587;28;20373;-68
2022/03/12 03:57:14;;;;;;;;;;;3.50;32.00;;;;;;5033856;28;20600;-67
2022/03/12 03:59:40;;;;;;;;;;;3.60;31.70;;;;;;5032065;28;19960;-68
2022/03/12 04:02:05;;;;;;;;;;;3.70;31.60;;;;;;5033478;28;19963;-66
2022/03/12 04:04:35;;;;;;;;;;;3.80;31.50;;;;;;5033245;28;19955;-65
2022/03/12 04:07:01;;;;;;;;;;;3.70;31.40;;;;;;5037000;28;19909;-67
2022/03/12 04:09:27;;;;;;;;;;;3.70;31.70;;;;;;5037255;28;19955;-65
2022/03/12 04:11:53;;;;;;;;;;;3.60;31.90;;;;;;5037258;28;19914;-68
2022/03/12 04:14:18;;;;;;;;;;;3.70;31.70;;;;;;5037144;28;20313;-71
2022/03/12 04:16:44;;;;;;;;;;;3.60;31.80;;;;;;5037181;28;20419;-69
2022/03/12 04:19:11;;;;;;;;;;;3.60;31.80;;;;;;5036977;28;20055;-64
2022/03/12 04:21:36;;;;;;;;;;;3.50;32.20;;;;;;5036869;28;20309;-63
2022/03/12 04:24:02;;;;;;;;;;;3.50;32.40;;;;;;5036802;28;19913;-62
2022/03/12 04:26:30;;;;;;;;;;;3.50;32.40;;;;;;5036814;28;20462;-62
2022/03/12 04:28:57;;;;;;;;;;;3.50;32.50;;;;;;5037341;28;19909;-62
2022/03/12 04:31:23;;;;;;;;;;;3.60;32.80;;;;;;5044345;28;20312;-62
2022/03/12 04:33:49;;;;;;;;;;;3.50;32.40;;;;;;5046026;28;19913;-69
2022/03/12 04:36:14;;;;;;;;;;;3.40;33.30;;;;;;5045343;28;19933;-66
2022/03/12 04:38:40;;;;;;;;;;;3.40;32.80;;;;;;5041069;28;19909;-65
2022/03/12 04:41:06;;;;;;;;;;;3.50;32.60;;;;;;5037034;28;20361;-66
2022/03/12 04:43:32;;;;;;;;;;;3.50;32.60;;;;;;5036680;28;19949;-70
2022/03/12 04:45:59;;;;;;;;;;;3.50;32.30;;;;;;5036649;28;19909;-66
2022/03/12 04:48:26;;;;;;;;;;;3.50;32.20;;;;;;5036610;28;19955;-68
2022/03/12 04:50:52;;;;;;;;;;;3.50;32.00;;;;;;5036425;28;19948;-71
2022/03/12 04:53:18;;;;;;;;;;;3.50;32.30;;;;;;5036242;28;19909;-66
2022/03/12 04:55:45;;;;;;;;;;;3.50;32.10;;;;;;5036289;28;19963;-69
2022/03/12 04:58:11;;;;;;;;;;;3.40;32.00;;;;;;5036608;28;19920;-66
2022/03/12 05:00:38;;;;;;;;;;;3.40;32.10;;;;;;5036063;28;20308;-67
2022/03/12 05:03:09;;;;;;;;;;;3.40;32.10;;;;;;5034867;28;20269;-62
2022/03/12 05:05:44;;;;;;;;;;;3.40;32.20;;;;;;5036335;28;19941;-62
2022/03/12 05:08:13;;;;;;;;;;;3.30;32.30;;;;;;5035980;28;19983;-63
2022/03/12 05:10:39;;;;;;;;;;;3.30;32.70;;;;;;5036065;28;19909;-63
2022/03/12 05:13:04;;;;;;;;;;;3.40;32.20;;;;;;5036074;28;19916;-62
2022/03/12 05:15:37;;;;;;;;;;;3.10;32.30;;;;;;5035459;28;19960;-62
2022/03/12 05:18:07;;;;;;;;;;;3.00;32.90;;;;;;5035573;28;19962;-62
2022/03/12 05:20:33;;;;;;;;;;;3.00;33.00;;;;;;5035481;28;20372;-62
2022/03/12 05:22:58;;;;;;;;;;;2.90;33.10;;;;;;5035790;28;20111;-62
2022/03/12 05:25:26;;;;;;;;;;;2.90;33.10;;;;;;5035415;28;20436;-62
2022/03/12 05:27:53;;;;;;;;;;;3.00;33.10;;;;;;5035991;28;19916;-69
2022/03/12 05:30:19;;;;;;;;;;;3.10;33.00;;;;;;5035713;28;19909;-62
2022/03/12 05:32:45;;;;;;;;;;;3.00;33.10;;;;;;5035338;28;19909;-62
2022/03/12 05:35:10;;;;;;;;;;;3.00;33.30;;;;;;5035462;28;19963;-65
2022/03/12 05:37:36;;;;;;;;;;;2.90;33.00;;;;;;5034399;28;20019;-63
2022/03/12 05:40:04;;;;;;;;;;;3.00;33.40;;;;;;5035295;28;19925;-62
2022/03/12 05:42:32;;;;;;;;;;;3.00;33.30;;;;;;5035387;28;19909;-65
2022/03/12 05:44:58;;;;;;;;;;;3.20;33.10;;;;;;5035471;28;20377;-62
2022/03/12 05:47:25;;;;;;;;;;;3.20;32.60;;;;;;5035090;28;19909;-62
2022/03/12 05:49:50;;;;;;;;;;;3.30;32.70;;;;;;5035368;28;20011;-63
2022/03/12 05:52:18;;;;;;;;;;;3.30;33.30;;;;;;5035345;28;19952;-62
2022/03/12 05:54:48;;;;;;;;;;;3.30;32.60;;;;;;5035077;28;19932;-62
2022/03/12 05:57:13;;;;;;;;;;;3.40;32.90;;;;;;5035029;28;19956;-63
2022/03/12 05:59:39;;;;;;;;;;;3.40;32.80;;;;;;5035071;28;19963;-62
2022/03/12 06:02:05;;;;;;;;;;;3.50;32.70;;;;;;5034836;28;19955;-61
2022/03/12 06:04:30;;;;;;;;;;;3.50;32.90;;;;;;5035153;28;19909;-63
2022/03/12 06:06:56;;;;;;;;;;;3.50;32.80;;;;;;5034968;28;19909;-63
2022/03/12 06:09:22;;;;;;;;;;;3.50;33.10;;;;;;5034854;28;20298;-63
2022/03/12 06:11:50;;;;;;;;;;;3.40;32.90;;;;;;5034673;28;19953;-62
2022/03/12 06:14:16;;;;;;;;;;;3.60;32.70;;;;;;5034641;28;20008;-64
2022/03/12 06:16:52;;;;;;;;;;;3.50;32.70;;;;;;5034672;28;20006;-63
2022/03/12 06:19:21;;;;;;;;;;;3.60;33.20;;;;;;5034477;28;19921;-64
2022/03/12 06:21:47;;;;;;;;;;;3.50;32.90;;;;;;5034484;28;19952;-63
2022/03/12 06:24:13;;;;;;;;;;;3.60;32.70;;;;;;5033241;28;19909;-63
2022/03/12 06:26:39;;;;;;;;;;;3.80;32.20;;;;;;5034349;28;20361;-63
2022/03/12 06:29:13;;;;;;;;;;;3.90;32.00;;;;;;5034471;28;19909;-63
2022/03/12 06:31:42;;;;;;;;;;;3.90;32.60;;;;;;5034423;28;19942;-63
2022/03/12 06:34:12;;;;;;;;;;;3.90;31.80;;;;;;5034378;28;19915;-62
2022/03/12 06:36:39;;;;;;;;;;;4.00;31.90;;;;;;5034236;28;19909;-63
2022/03/12 06:39:05;;;;;;;;;;;3.90;32.00;;;;;;5034247;28;19917;-64
2022/03/12 06:41:35;;;;;;;;;;;4.40;50.10;;;;;;5034235;28;19959;-61
2022/03/12 06:44:02;;;;;;;;;;;5.20;50.70;;;;;;5034029;28;20276;-61
2022/03/12 06:46:29;;;;;;;;;;;5.60;39.80;;;;;;5033627;28;19986;-59
2022/03/12 06:48:54;;;;;;;;;;;5.90;33.80;;;;;;5033989;28;19909;-60
2022/03/12 06:51:20;;;;;;;;;;;5.90;36.20;;;;;;5033901;28;19909;-62
2022/03/12 06:53:46;;;;;;;;;;;6.30;36.40;;;;;;5033948;28;20419;-60
2022/03/12 06:56:12;;;;;;;;;;;6.60;31.30;;;;;;5033959;28;20328;-67
2022/03/12 06:58:38;;;;;;;;;;;6.60;29.40;;;;;;5034233;28;19909;-74
2022/03/12 07:01:04;;;;;;;;;;;6.40;29.40;;;;;;5033790;28;19920;-60
2022/03/12 07:03:30;;;;;;;;;;;6.40;28.80;;;;;;5033779;28;19913;-62
2022/03/12 07:05:55;;;;;;;;;;;6.10;28.50;;;;;;5033757;28;20035;-61
2022/03/12 07:08:22;;;;;;;;;;;5.80;28.50;;;;;;5033560;28;19909;-61
2022/03/12 07:10:49;;;;;;;;;;;5.60;29.00;;;;;;5033663;28;19913;-61
2022/03/12 07:13:15;;;;;;;;;;;5.40;29.10;;;;;;5033662;28;19952;-61
2022/03/12 07:15:40;;;;;;;;;;;5.50;29.40;;;;;;5033790;28;19909;-65
2022/03/12 07:18:06;;;;;;;;;;;5.50;29.10;;;;;;5032951;28;19916;-60
2022/03/12 07:20:32;;;;;;;;;;;5.50;29.80;;;;;;5031963;28;19971;-60
2022/03/12 07:22:57;;;;;;;;;;;5.70;29.60;;;;;;5033023;28;19909;-60
2022/03/12 07:25:25;;;;;;;;;;;5.90;28.80;;;;;;5032766;28;19925;-62
2022/03/12 07:27:52;;;;;;;;;;;6.10;28.50;;;;;;5033425;28;19913;-66
2022/03/12 07:30:18;;;;;;;;;;;6.10;28.80;;;;;;5033770;28;19987;-62
2022/03/12 07:32:44;;;;;;;;;;;6.20;28.10;;;;;;5033517;28;19913;-65
2022/03/12 07:35:11;;;;;;;;;;;6.10;28.50;;;;;;5033486;28;19909;-61
2022/03/12 07:37:37;;;;;;;;;;;6.10;28.00;;;;;;5033008;28;19913;-60
2022/03/12 07:40:04;;;;;;;;;;;6.40;28.00;;;;;;5034789;28;20431;-59
2022/03/12 07:42:30;;;;;;;;;;;6.60;27.00;;;;;;5037006;28;19913;-59
2022/03/12 07:44:56;;;;;;;;;;;6.70;27.30;;;;;;5036857;28;19963;-59
2022/03/12 07:47:21;;;;;;;;;;;6.80;26.90;;;;;;5037734;28;19979;-60
2022/03/12 07:49:47;;;;;;;;;;;6.90;26.70;;;;;;5039104;28;19913;-59
2022/03/12 07:52:12;;;;;;;;;;;6.70;26.90;;;;;;5038194;28;19913;-59
2022/03/12 07:54:38;;;;;;;;;;;6.50;26.60;;;;;;5038057;28;19916;-64
2022/03/12 07:57:04;;;;;;;;;;;6.60;26.50;;;;;;5038476;28;19909;-63
2022/03/12 07:59:30;;;;;;;;;;;6.70;27.00;;;;;;5039656;28;20384;-61
2022/03/12 08:01:58;;;;;;;;;;;6.90;26.40;;;;;;5039343;28;19909;-59
2022/03/12 08:04:24;;;;;;;;;;;7.10;28.60;;;;;;5038984;28;19998;-72
2022/03/12 08:06:50;;;;;;;;;;;7.20;26.20;;;;;;5038065;28;19913;-68
2022/03/12 08:09:15;;;;;;;;;;;7.30;26.70;;;;;;5040424;28;19915;-68
2022/03/12 08:11:41;;;;;;;;;;;7.30;25.90;;;;;;5043269;28;19936;-68
2022/03/12 08:14:15;;;;;;;;;;;7.20;25.60;;;;;;5043068;28;19909;-68
2022/03/12 08:16:41;;;;;;;;;;;7.10;25.60;;;;;;5038718;28;19909;-67
2022/03/12 08:19:08;;;;;;;;;;;7.10;25.70;;;;;;5041422;28;19913;-70
2022/03/12 08:21:34;;;;;;;;;;;7.10;25.70;;;;;;5033535;28;19914;-68
2022/03/12 08:24:02;;;;;;;;;;;7.30;25.00;;;;;;5035509;28;19917;-68
2022/03/12 08:26:27;;;;;;;;;;;7.30;25.00;;;;;;5034747;28;19932;-67
2022/03/12 08:28:53;;;;;;;;;;;7.30;24.80;;;;;;5035341;28;19909;-61
2022/03/12 08:31:19;;;;;;;;;;;7.30;24.50;;;;;;5035353;28;20277;-63
2022/03/12 08:33:45;;;;;;;;;;;7.40;24.90;;;;;;5035334;28;19982;-65
2022/03/12 08:36:11;;;;;;;;;;;7.30;24.60;;;;;;5035651;28;19999;-64
2022/03/12 08:38:37;;;;;;;;;;;7.50;24.80;;;;;;5035787;28;20014;-62
2022/03/12 08:41:05;;;;;;;;;;;7.70;24.10;;;;;;5036132;28;19924;-63
2022/03/12 08:43:31;;;;;;;;;;;7.50;23.50;;;;;;5036058;28;19932;-63
2022/03/12 08:45:56;;;;;;;;;;;7.60;23.40;;;;;;5035782;28;20424;-62
2022/03/12 08:48:22;;;;;;;;;;;7.80;24.30;;;;;;5035843;28;19913;-63
2022/03/12 08:50:47;;;;;;;;;;;8.00;23.70;;;;;;5034538;28;19909;-63
2022/03/12 08:53:15;;;;;;;;;;;7.90;23.90;;;;;;5035504;28;19913;-62
2022/03/12 08:55:41;;;;;;;;;;;8.20;24.60;;;;;;5035761;28;19909;-63
2022/03/12 08:58:07;;;;;;;;;;;8.40;22.80;;;;;;5035584;28;19932;-76
2022/03/12 09:00:32;;;;;;;;;;;8.20;22.40;;;;;;5036000;28;20365;-72
2022/03/12 09:02:59;;;;;;;;;;;8.20;22.70;;;;;;5035675;28;19992;-67
2022/03/12 09:05:25;;;;;;;;;;;8.40;23.10;;;;;;5035734;28;19945;-72
2022/03/12 09:07:52;;;;;;;;;;;8.60;22.60;;;;;;5035530;28;19913;-64
2022/03/12 09:10:18;;;;;;;;;;;8.50;21.30;;;;;;5035143;28;20435;-67
2022/03/12 09:12:44;;;;;;;;;;;8.00;22.10;;;;;;5035359;28;20386;-69
2022/03/12 09:15:09;;;;;;;;;;;8.30;23.50;;;;;;5035465;28;19909;-65
2022/03/12 09:17:35;;;;;;;;;;;8.60;24.30;;;;;;5035747;28;19917;-63
2022/03/12 09:20:01;;;;;;;;;;;8.40;22.70;;;;;;5035375;28;19917;-60
2022/03/12 09:22:27;;;;;;;;;;;7.90;21.80;;;;;;5034367;28;19921;-67
2022/03/12 09:24:52;;;;;;;;;;;8.10;22.50;;;;;;5034316;28;19932;-60
2022/03/12 09:27:18;;;;;;;;;;;8.40;21.70;;;;;;5035023;28;19917;-60
2022/03/12 09:29:43;;;;;;;;;;;8.60;23.90;;;;;;5034801;28;20280;-64
2022/03/12 09:32:09;;;;;;;;;;;8.70;22.00;;;;;;5034590;28;20024;-69
2022/03/12 09:34:35;;;;;;;;;;;8.70;21.80;;;;;;5033758;28;19913;-63
2022/03/12 09:37:01;;;;;;;;;;;8.40;22.00;;;;;;5035136;28;19909;-75
2022/03/12 09:39:27;;;;;;;;;;;8.50;22.80;;;;;;5035347;28;19959;-74
2022/03/12 09:41:53;;;;;;;;;;;8.60;21.40;;;;;;5034416;28;19921;-66
2022/03/12 09:44:18;;;;;;;;;;;8.60;22.00;;;;;;5035021;28;19909;-65
2022/03/12 09:46:44;;;;;;;;;;;8.70;22.30;;;;;;5034686;28;19952;-61
2022/03/12 09:49:12;;;;;;;;;;;8.50;20.60;;;;;;5034992;28;19932;-64
2022/03/12 09:51:38;;;;;;;;;;;8.40;21.30;;;;;;5034628;28;19909;-68
2022/03/12 09:54:04;;;;;;;;;;;8.50;21.50;;;;;;5034939;28;19916;-61
2022/03/12 09:56:30;;;;;;;;;;;8.50;20.90;;;;;;5035604;28;20261;-61
2022/03/12 09:58:55;;;;;;;;;;;8.70;20.90;;;;;;5034838;28;19915;-61
2022/03/12 10:01:21;;;;;;;;;;;8.80;20.80;;;;;;5034789;28;19924;-61
2022/03/12 10:03:47;;;;;;;;;;;8.60;20.60;;;;;;5034162;28;19909;-61
2022/03/12 10:06:13;;;;;;;;;;;8.50;21.50;;;;;;5035246;28;20008;-62
2022/03/12 10:08:39;;;;;;;;;;;8.80;21.40;;;;;;5034880;28;20249;-59
2022/03/12 10:11:05;;;;;;;;;;;8.80;20.70;;;;;;5033315;28;19915;-59
2022/03/12 10:13:31;;;;;;;;;;;8.70;20.10;;;;;;5034915;28;20368;-59
2022/03/12 10:15:56;;;;;;;;;;;8.70;20.10;;;;;;5034870;28;19979;-61
2022/03/12 10:18:22;;;;;;;;;;;9.00;20.10;;;;;;5034512;28;20266;-65
2022/03/12 10:20:48;;;;;;;;;;;9.10;20.50;;;;;;5034357;28;19917;-60
2022/03/12 10:23:14;;;;;;;;;;;9.00;20.10;;;;;;5034413;28;19932;-71
2022/03/12 10:25:39;;;;;;;;;;;9.10;20.40;;;;;;5034204;28;19967;-63
2022/03/12 10:28:05;;;;;;;;;;;9.40;20.40;;;;;;5034483;28;20004;-61
2022/03/12 10:30:31;;;;;;;;;;;9.50;20.20;;;;;;5034409;28;19913;-66
2022/03/12 10:32:56;;;;;;;;;;;9.50;20.40;;;;;;5034387;28;20316;-66
2022/03/12 10:35:23;;;;;;;;;;;9.70;20.40;;;;;;5034097;28;19913;-61
2022/03/12 10:37:50;;;;;;;;;;;9.90;19.90;;;;;;5035071;28;19963;-65
2022/03/12 10:40:18;;;;;;;;;;;9.80;19.90;;;;;;5033327;28;20331;-67
2022/03/12 10:42:51;;;;;;;;;;;9.90;20.10;;;;;;5033980;28;19963;-64
2022/03/12 10:45:21;;;;;;;;;;;10.00;19.70;;;;;;5034075;28;20388;-66
2022/03/12 10:47:47;;;;;;;;;;;9.70;19.50;;;;;;5033958;28;19996;-63
2022/03/12 10:50:42;;;;;;;;;;;9.50;20.40;;;;;;5034160;28;20008;-60
2022/03/12 10:53:08;;;;;;;;;;;9.60;19.90;;;;;;5024908;28;19913;-60
2022/03/12 10:55:40;;;;;;;;;;;9.70;19.80;;;;;;5034126;28;19909;-59
2022/03/12 10:58:12;;;;;;;;;;;10.10;19.80;;;;;;5033800;28;19979;-60
2022/03/12 11:00:56;;;;;;;;;;;10.40;19.70;;;;;;5034023;28;19961;-59
2022/03/12 11:03:23;;;;;;;;;;;10.50;19.50;;;;;;5033706;28;19909;-59
2022/03/12 11:05:49;;;;;;;;;;;9.70;19.00;;;;;;5034033;28;19932;-59
2022/03/12 11:08:21;;;;;;;;;;;9.90;21.30;;;;;;5033772;28;19909;-59
2022/03/12 11:10:47;;;;;;;;;;;10.50;31.40;;;;;;5033827;28;19909;-59
2022/03/12 11:13:34;;;;;;;;;;;10.40;20.20;;;;;;5033501;28;19913;-59
2022/03/12 11:16:04;;;;;;;;;;;10.40;19.50;;;;;;5033580;28;19909;-59
2022/03/12 11:18:30;;;;;;;;;;;10.60;20.10;;;;;;5032621;28;19921;-59
2022/03/12 11:20:55;;;;;;;;;;;10.70;20.10;;;;;;5033382;28;20020;-60
2022/03/12 11:23:27;;;;;;;;;;;10.80;19.30;;;;;;5033613;28;19913;-60
2022/03/12 11:25:57;;;;;;;;;;;10.80;18.70;;;;;;5033042;28;19929;-60
2022/03/12 11:28:24;;;;;;;;;;;10.90;19.30;;;;;;5033309;28;19944;-65
2022/03/12 11:30:50;;;;;;;;;;;10.80;19.10;;;;;;5033330;28;19909;-62
2022/03/12 11:33:16;;;;;;;;;;;10.90;20.10;;;;;;5033154;28;19917;-64
2022/03/12 11:35:46;;;;;;;;;;;10.90;18.30;;;;;;5033045;28;19909;-65
2022/03/12 11:38:12;;;;;;;;;;;11.00;19.10;;;;;;5033478;28;19913;-61
2022/03/12 11:40:42;;;;;;;;;;;11.00;17.90;;;;;;5033340;28;19924;-58
2022/03/12 11:43:21;;;;;;;;;;;11.20;18.40;;;;;;5033332;28;19909;-65
2022/03/12 11:45:47;;;;;;;;;;;11.20;18.30;;;;;;5033330;28;19914;-59
2022/03/12 11:48:13;;;;;;;;;;;11.30;18.20;;;;;;5033265;28;19917;-61
2022/03/12 11:50:40;;;;;;;;;;;11.40;17.70;;;;;;5025028;28;19916;-64
2022/03/12 11:53:06;;;;;;;;;;;11.40;17.80;;;;;;5013723;28;19910;-74
2022/03/12 11:55:32;;;;;;;;;;;11.50;17.50;;;;;;5013014;28;19909;-72
2022/03/12 11:57:59;;;;;;;;;;;11.50;17.40;;;;;;5013499;28;19914;-65
2022/03/12 12:00:26;;;;;;;;;;;11.40;17.70;;;;;;5016027;28;19968;-76
2022/03/12 12:02:54;;;;;;;;;;;11.40;18.50;;;;;;5033139;28;19920;-69
2022/03/12 12:05:22;;;;;;;;;;;11.20;18.00;;;;;;5033693;28;19916;-66
2022/03/12 12:07:48;;;;;;;;;;;11.40;22.40;;;;;;5031410;28;19913;-63
2022/03/12 12:10:17;;;;;;;;;;;11.50;24.00;;;;;;5032781;28;19963;-62
2022/03/12 12:12:44;;;;;;;;;;;11.50;25.00;;;;;;5032820;28;19914;-60
2022/03/12 12:15:19;;;;;;;;;;;11.60;25.30;;;;;;5029537;28;19913;-61
2022/03/12 12:17:46;;;;;;;;;;;11.90;26.20;;;;;;5032595;28;19951;-64
2022/03/12 12:20:13;;;;;;;;;;;12.10;24.70;;;;;;5032395;28;19925;-62
2022/03/12 12:22:39;;;;;;;;;;;11.90;24.90;;;;;;5032094;28;20365;-62
2022/03/12 12:25:05;;;;;;;;;;;11.60;25.20;;;;;;5032296;28;19909;-64
2022/03/12 12:27:50;;;;;;;;;;;11.50;26.40;;;;;;5036339;28;19910;-59
2022/03/12 12:30:24;;;;;;;;;;;11.80;26.50;;;;;;5036529;28;20487;-61
2022/03/12 12:32:50;;;;;;;;;;;11.80;27.20;;;;;;5036268;28;19909;-62
2022/03/12 12:35:22;;;;;;;;;;;11.90;27.60;;;;;;5036062;28;19909;-65
2022/03/12 12:37:51;;;;;;;;;;;12.00;27.30;;;;;;5036282;28;20003;-68
2022/03/12 12:40:19;;;;;;;;;;;11.70;27.50;;;;;;5037047;28;19917;-68
2022/03/12 12:42:45;;;;;;;;;;;11.50;28.50;;;;;;5037943;28;20380;-65
2022/03/12 12:45:14;;;;;;;;;;;11.60;28.10;;;;;;5038691;28;19909;-65
2022/03/12 12:47:40;;;;;;;;;;;11.10;27.40;;;;;;5040759;28;19909;-65
2022/03/12 12:50:16;;;;;;;;;;;11.10;27.10;;;;;;5043238;28;19909;-62
2022/03/12 12:53:02;;;;;;;;;;;11.30;27.90;;;;;;5043919;28;19909;-71
2022/03/12 12:55:31;;;;;;;;;;;11.30;29.00;;;;;;5036727;28;19913;-68
2022/03/12 12:57:56;;;;;;;;;;;10.80;30.40;;;;;;5035524;28;19909;-71
2022/03/12 13:00:28;;;;;;;;;;;10.80;29.80;;;;;;5035886;28;19943;-62
2022/03/12 13:02:56;;;;;;;;;;;11.10;30.00;;;;;;5035839;28;19999;-74
2022/03/12 13:05:40;;;;;;;;;;;11.30;30.10;;;;;;5035859;28;19909;-64
2022/03/12 13:08:06;;;;;;;;;;;11.40;31.10;;;;;;5036086;28;20339;-62
2022/03/12 13:10:32;;;;;;;;;;;11.40;30.70;;;;;;5035649;28;19967;-67
2022/03/12 13:13:12;;;;;;;;;;;11.50;31.70;;;;;;5035561;28;19963;-63
2022/03/12 13:15:39;;;;;;;;;;;11.60;32.20;;;;;;5035397;28;20303;-67
2022/03/12 13:18:30;;;;;;;;;;;11.40;32.80;;;;;;5035416;28;20006;-63
2022/03/12 13:20:56;;;;;;;;;;;11.20;32.60;;;;;;5034859;28;20296;-66
2022/03/12 13:23:29;;;;;;;;;;;11.10;33.40;;;;;;5034959;28;19916;-66
2022/03/12 13:25:57;;;;;;;;;;;11.00;33.90;;;;;;5035131;28;20339;-64
2022/03/12 13:28:39;;;;;;;;;;;11.00;34.90;;;;;;5035021;28;20000;-66
2022/03/12 13:31:17;;;;;;;;;;;11.10;34.50;;;;;;5035210;28;19915;-66
2022/03/12 13:33:43;;;;;;;;;;;11.20;32.50;;;;;;5035122;28;19960;-71
2022/03/12 13:36:19;;;;;;;;;;;10.90;31.50;;;;;;5034843;28;19975;-71
2022/03/12 13:38:44;;;;;;;;;;;11.00;31.80;;;;;;5032745;28;19966;-70
2022/03/12 13:41:14;;;;;;;;;;;11.00;31.10;;;;;;5034951;28;20324;-69
2022/03/12 13:43:40;;;;;;;;;;;10.60;32.40;;;;;;5034909;28;19909;-69
2022/03/12 13:46:06;;;;;;;;;;;10.50;32.00;;;;;;5034813;28;19951;-68
2022/03/12 13:48:32;;;;;;;;;;;10.70;32.20;;;;;;5034798;28;19948;-65
2022/03/12 13:50:57;;;;;;;;;;;10.70;32.30;;;;;;5034177;28;19913;-66
2022/03/12 13:53:29;;;;;;;;;;;10.70;32.20;;;;;;5033979;28;19916;-65
2022/03/12 13:56:05;;;;;;;;;;;10.80;31.90;;;;;;5034014;28;19917;-66
2022/03/12 13:58:30;;;;;;;;;;;10.90;31.00;;;;;;5034092;28;20343;-66
2022/03/12 14:01:00;;;;;;;;;;;10.80;31.00;;;;;;5033882;28;20012;-66
2022/03/12 14:03:29;;;;;;;;;;;10.80;30.00;;;;;;5033948;28;19913;-66
2022/03/12 14:05:56;;;;;;;;;;;10.30;30.60;;;;;;5034094;28;19913;-67
2022/03/12 14:08:23;;;;;;;;;;;10.30;31.30;;;;;;5033727;28;20000;-67
2022/03/12 14:10:54;;;;;;;;;;;9.90;32.10;;;;;;5034079;28;19909;-62
2022/03/12 14:13:20;;;;;;;;;;;9.80;32.80;;;;;;5034297;28;20000;-70
2022/03/12 14:15:46;;;;;;;;;;;9.90;32.20;;;;;;5034502;28;19916;-64
2022/03/12 14:18:19;;;;;;;;;;;10.10;32.20;;;;;;5034085;28;19913;-66
2022/03/12 14:20:44;;;;;;;;;;;10.00;32.10;;;;;;5034348;28;20327;-66
2022/03/12 14:23:12;;;;;;;;;;;10.10;32.60;;;;;;5033912;28;20051;-66
2022/03/12 14:25:37;;;;;;;;;;;10.30;31.40;;;;;;5033920;28;19925;-65
2022/03/12 14:28:04;;;;;;;;;;;10.50;31.20;;;;;;5034237;28;19913;-71